sensor_id;sensor_type;location;lat;lon;timestamp;temperature;humidity
8832;DHT22;4452;50.756;4.472;2022-12-10T00:01:26;-0.40;99.90
8832;DHT22;4452;50.756;4.472;2022-12-10T00:03:53;-0.50;99.90
8832;DHT22;4452;50.756;4.472;2022-12-10T00:06:25;-0.60;99.90
8832;DHT22;4452;50.756;4.472;2022-12-10T00:08:51;-0.70;99.90
8832;DHT22;4452;50.756;4.472;2022-12-10T00:11:19;-0.90;99.90
8832;DHT22;4452;50.756;4.472;2022-12-10T00:13:46;-0.90;99.90
8832;DHT22;4452;50.756;4.472;2022-12-10T00:16:14;-0.90;99.90
8832;DHT22;4452;50.756;4.472;2022-12-10T00:18:44;-1.00;99.90
8832;DHT22;4452;50.756;4.472;2022-12-10T00:21:14;-0.90;99.90
8832;DHT22;4452;50.756;4.472;2022-12-10T00:23:42;-0.80;99.90
8832;DHT22;4452;50.756;4.472;2022-12-10T00:28:41;-0.90;99.90
8832;DHT22;4452;50.756;4.472;2022-12-10T00:31:15;-0.90;99.90
8832;DHT22;4452;50.756;4.472;2022-12-10T00:33:42;-0.80;99.90
8832;DHT22;4452;50.756;4.472;2022-12-10T00:36:29;-0.90;99.90
8832;DHT22;4452;50.756;4.472;2022-12-10T00:39:01;-0.90;99.90
8832;DHT22;4452;50.756;4.472;2022-12-10T00:41:27;-0.70;99.90
8832;DHT22;4452;50.756;4.472;2022-12-10T00:43:53;-0.90;99.90
8832;DHT22;4452;50.756;4.472;2022-12-10T00:46:19;-0.80;99.90
8832;DHT22;4452;50.756;4.472;2022-12-10T00:48:45;-0.80;99.90
8832;DHT22;4452;50.756;4.472;2022-12-10T00:51:15;-0.80;99.90
8832;DHT22;4452;50.756;4.472;2022-12-10T00:53:42;-0.80;99.90
8832;DHT22;4452;50.756;4.472;2022-12-10T00:56:10;-0.70;99.90
8832;DHT22;4452;50.756;4.472;2022-12-10T00:58:37;-0.70;99.90
8832;DHT22;4452;50.756;4.472;2022-12-10T01:01:23;-0.80;99.90
8832;DHT22;4452;50.756;4.472;2022-12-10T01:03:51;-0.80;99.90
8832;DHT22;4452;50.756;4.472;2022-12-10T01:06:24;-0.90;99.90
8832;DHT22;4452;50.756;4.472;2022-12-10T01:08:51;-0.90;99.90
8832;DHT22;4452;50.756;4.472;2022-12-10T01:11:19;-0.90;99.90
8832;DHT22;4452;50.756;4.472;2022-12-10T01:13:46;-0.80;99.90
8832;DHT22;4452;50.756;4.472;2022-12-10T01:16:14;-0.70;99.90
8832;DHT22;4452;50.756;4.472;2022-12-10T01:18:40;-0.60;99.90
8832;DHT22;4452;50.756;4.472;2022-12-10T01:21:11;-0.70;99.90
8832;DHT22;4452;50.756;4.472;2022-12-10T01:23:40;-0.80;99.90
8832;DHT22;4452;50.756;4.472;2022-12-10T01:26:09;-0.90;99.90
8832;DHT22;4452;50.756;4.472;2022-12-10T01:28:36;-0.80;99.90
8832;DHT22;4452;50.756;4.472;2022-12-10T01:31:07;-0.80;99.90
8832;DHT22;4452;50.756;4.472;2022-12-10T01:33:34;-0.90;99.90
8832;DHT22;4452;50.756;4.472;2022-12-10T01:36:09;-1.00;99.90
8832;DHT22;4452;50.756;4.472;2022-12-10T01:38:35;-0.90;99.90
8832;DHT22;4452;50.756;4.472;2022-12-10T01:41:01;-0.70;99.90
8832;DHT22;4452;50.756;4.472;2022-12-10T01:46:20;-0.70;99.90
8832;DHT22;4452;50.756;4.472;2022-12-10T01:48:46;-0.80;99.90
8832;DHT22;4452;50.756;4.472;2022-12-10T01:51:14;-0.80;99.90
8832;DHT22;4452;50.756;4.472;2022-12-10T01:53:40;-0.60;99.90
8832;DHT22;4452;50.756;4.472;2022-12-10T01:56:08;-0.80;99.90
8832;DHT22;4452;50.756;4.472;2022-12-10T01:58:34;-0.80;99.90
8832;DHT22;4452;50.756;4.472;2022-12-10T02:01:32;-0.60;99.90
8832;DHT22;4452;50.756;4.472;2022-12-10T02:04:03;-0.60;99.90
8832;DHT22;4452;50.756;4.472;2022-12-10T02:09:21;-0.60;99.90
8832;DHT22;4452;50.756;4.472;2022-12-10T02:12:13;-0.70;99.90
8832;DHT22;4452;50.756;4.472;2022-12-10T02:14:53;-0.80;99.90
8832;DHT22;4452;50.756;4.472;2022-12-10T02:17:33;-0.80;99.90
8832;DHT22;4452;50.756;4.472;2022-12-10T02:23:01;-0.80;99.90
8832;DHT22;4452;50.756;4.472;2022-12-10T02:26:02;-0.90;99.90
8832;DHT22;4452;50.756;4.472;2022-12-10T02:31:26;-0.90;99.90
8832;DHT22;4452;50.756;4.472;2022-12-10T02:33:57;-1.00;99.90
8832;DHT22;4452;50.756;4.472;2022-12-10T02:36:26;-1.10;99.90
8832;DHT22;4452;50.756;4.472;2022-12-10T02:38:52;-1.20;99.90
8832;DHT22;4452;50.756;4.472;2022-12-10T02:41:22;-1.20;99.90
8832;DHT22;4452;50.756;4.472;2022-12-10T02:43:52;-1.10;99.90
8832;DHT22;4452;50.756;4.472;2022-12-10T02:46:19;-1.10;99.90
8832;DHT22;4452;50.756;4.472;2022-12-10T02:48:48;-1.00;99.90
8832;DHT22;4452;50.756;4.472;2022-12-10T02:51:15;-1.00;99.90
8832;DHT22;4452;50.756;4.472;2022-12-10T02:53:44;-1.00;99.90
8832;DHT22;4452;50.756;4.472;2022-12-10T03:01:19;-1.10;99.90
8832;DHT22;4452;50.756;4.472;2022-12-10T03:03:53;-1.20;99.90
8832;DHT22;4452;50.756;4.472;2022-12-10T03:08:59;-1.20;99.90
8832;DHT22;4452;50.756;4.472;2022-12-10T03:11:27;-1.30;99.90
8832;DHT22;4452;50.756;4.472;2022-12-10T03:16:19;-1.10;99.90
8832;DHT22;4452;50.756;4.472;2022-12-10T03:18:49;-1.10;99.90
8832;DHT22;4452;50.756;4.472;2022-12-10T03:21:16;-1.10;99.90
8832;DHT22;4452;50.756;4.472;2022-12-10T03:23:46;-1.00;99.90
8832;DHT22;4452;50.756;4.472;2022-12-10T03:26:12;-1.10;99.90
8832;DHT22;4452;50.756;4.472;2022-12-10T03:28:42;-1.10;99.90
8832;DHT22;4452;50.756;4.472;2022-12-10T03:31:11;-1.10;99.90
8832;DHT22;4452;50.756;4.472;2022-12-10T03:33:39;-1.10;99.90
8832;DHT22;4452;50.756;4.472;2022-12-10T03:36:06;-1.00;99.90
8832;DHT22;4452;50.756;4.472;2022-12-10T03:38:34;-0.90;99.90
8832;DHT22;4452;50.756;4.472;2022-12-10T03:41:00;-0.90;99.90
8832;DHT22;4452;50.756;4.472;2022-12-10T03:43:26;-1.00;99.90
8832;DHT22;4452;50.756;4.472;2022-12-10T03:45:52;-0.90;99.90
8832;DHT22;4452;50.756;4.472;2022-12-10T03:48:17;-0.80;99.90
8832;DHT22;4452;50.756;4.472;2022-12-10T03:50:43;-1.00;99.90
8832;DHT22;4452;50.756;4.472;2022-12-10T03:53:08;-1.00;99.90
8832;DHT22;4452;50.756;4.472;2022-12-10T03:55:34;-1.00;99.90
8832;DHT22;4452;50.756;4.472;2022-12-10T03:58:00;-1.00;99.90
8832;DHT22;4452;50.756;4.472;2022-12-10T04:00:25;-0.90;99.90
8832;DHT22;4452;50.756;4.472;2022-12-10T04:02:51;-0.90;99.90
8832;DHT22;4452;50.756;4.472;2022-12-10T04:05:16;-0.80;99.90
8832;DHT22;4452;50.756;4.472;2022-12-10T04:07:42;-0.80;99.90
8832;DHT22;4452;50.756;4.472;2022-12-10T04:10:08;-0.90;99.90
8832;DHT22;4452;50.756;4.472;2022-12-10T04:12:34;-0.70;99.90
8832;DHT22;4452;50.756;4.472;2022-12-10T04:14:59;-0.70;99.90
8832;DHT22;4452;50.756;4.472;2022-12-10T04:17:43;-0.80;99.90
8832;DHT22;4452;50.756;4.472;2022-12-10T04:20:09;-0.80;99.90
8832;DHT22;4452;50.756;4.472;2022-12-10T04:22:55;-0.80;99.90
8832;DHT22;4452;50.756;4.472;2022-12-10T04:25:39;-0.80;99.90
8832;DHT22;4452;50.756;4.472;2022-12-10T04:28:23;-0.90;99.90
8832;DHT22;4452;50.756;4.472;2022-12-10T04:30:49;-0.90;99.90
8832;DHT22;4452;50.756;4.472;2022-12-10T04:33:14;-0.90;99.90
8832;DHT22;4452;50.756;4.472;2022-12-10T04:35:40;-0.80;99.90
8832;DHT22;4452;50.756;4.472;2022-12-10T04:38:05;-0.70;99.90
8832;DHT22;4452;50.756;4.472;2022-12-10T04:40:31;-0.60;99.90
8832;DHT22;4452;50.756;4.472;2022-12-10T04:42:57;-0.70;99.90
8832;DHT22;4452;50.756;4.472;2022-12-10T04:45:22;-0.70;99.90
8832;DHT22;4452;50.756;4.472;2022-12-10T04:47:48;-0.70;99.90
8832;DHT22;4452;50.756;4.472;2022-12-10T04:50:13;-0.80;99.90
8832;DHT22;4452;50.756;4.472;2022-12-10T04:52:39;-0.90;99.90
8832;DHT22;4452;50.756;4.472;2022-12-10T04:55:05;-0.80;99.90
8832;DHT22;4452;50.756;4.472;2022-12-10T04:57:31;-0.80;99.90
8832;DHT22;4452;50.756;4.472;2022-12-10T04:59:56;-0.80;99.90
8832;DHT22;4452;50.756;4.472;2022-12-10T05:02:22;-0.90;99.90
8832;DHT22;4452;50.756;4.472;2022-12-10T05:04:49;-0.80;99.90
8832;DHT22;4452;50.756;4.472;2022-12-10T05:07:14;-0.80;99.90
8832;DHT22;4452;50.756;4.472;2022-12-10T05:09:40;-0.90;99.90
8832;DHT22;4452;50.756;4.472;2022-12-10T05:12:06;-0.80;99.90
8832;DHT22;4452;50.756;4.472;2022-12-10T05:14:31;-0.80;99.90
8832;DHT22;4452;50.756;4.472;2022-12-10T05:16:57;-0.80;99.90
8832;DHT22;4452;50.756;4.472;2022-12-10T05:19:24;-0.90;99.90
8832;DHT22;4452;50.756;4.472;2022-12-10T05:21:54;-0.80;99.90
8832;DHT22;4452;50.756;4.472;2022-12-10T05:24:39;-1.00;99.90
8832;DHT22;4452;50.756;4.472;2022-12-10T05:27:06;-1.00;99.90
8832;DHT22;4452;50.756;4.472;2022-12-10T05:29:33;-1.10;99.90
8832;DHT22;4452;50.756;4.472;2022-12-10T05:31:59;-1.10;99.90
8832;DHT22;4452;50.756;4.472;2022-12-10T05:34:26;-1.00;99.90
8832;DHT22;4452;50.756;4.472;2022-12-10T05:36:51;-1.00;99.90
8832;DHT22;4452;50.756;4.472;2022-12-10T05:39:17;-1.00;99.90
8832;DHT22;4452;50.756;4.472;2022-12-10T05:41:43;-0.90;99.90
8832;DHT22;4452;50.756;4.472;2022-12-10T05:44:10;-0.90;99.90
8832;DHT22;4452;50.756;4.472;2022-12-10T05:46:36;-0.90;99.90
8832;DHT22;4452;50.756;4.472;2022-12-10T05:49:04;-0.90;99.90
8832;DHT22;4452;50.756;4.472;2022-12-10T05:51:32;-0.90;99.90
8832;DHT22;4452;50.756;4.472;2022-12-10T05:53:59;-0.90;99.90
8832;DHT22;4452;50.756;4.472;2022-12-10T05:56:26;-0.80;99.90
8832;DHT22;4452;50.756;4.472;2022-12-10T05:58:54;-0.90;99.90
8832;DHT22;4452;50.756;4.472;2022-12-10T06:01:24;-0.90;99.90
8832;DHT22;4452;50.756;4.472;2022-12-10T06:03:52;-0.90;99.90
8832;DHT22;4452;50.756;4.472;2022-12-10T06:06:27;-0.80;99.90
8832;DHT22;4452;50.756;4.472;2022-12-10T06:08:53;-0.90;99.90
8832;DHT22;4452;50.756;4.472;2022-12-10T06:11:19;-0.90;99.90
8832;DHT22;4452;50.756;4.472;2022-12-10T06:13:46;-0.90;99.90
8832;DHT22;4452;50.756;4.472;2022-12-10T06:16:13;-1.00;99.90
8832;DHT22;4452;50.756;4.472;2022-12-10T06:18:39;-0.90;99.90
8832;DHT22;4452;50.756;4.472;2022-12-10T06:21:07;-1.00;99.90
8832;DHT22;4452;50.756;4.472;2022-12-10T06:23:37;-0.80;99.90
8832;DHT22;4452;50.756;4.472;2022-12-10T06:26:05;-0.80;99.90
8832;DHT22;4452;50.756;4.472;2022-12-10T06:28:31;-0.90;99.90
8832;DHT22;4452;50.756;4.472;2022-12-10T06:30:58;-0.90;99.90
8832;DHT22;4452;50.756;4.472;2022-12-10T06:33:24;-0.90;99.90
8832;DHT22;4452;50.756;4.472;2022-12-10T06:35:50;-0.80;99.90
8832;DHT22;4452;50.756;4.472;2022-12-10T06:38:16;-0.80;99.90
8832;DHT22;4452;50.756;4.472;2022-12-10T06:40:41;-0.70;99.90
8832;DHT22;4452;50.756;4.472;2022-12-10T06:43:07;-0.70;99.90
8832;DHT22;4452;50.756;4.472;2022-12-10T06:45:33;-0.70;99.90
8832;DHT22;4452;50.756;4.472;2022-12-10T06:47:58;-0.60;99.90
8832;DHT22;4452;50.756;4.472;2022-12-10T06:50:24;-0.70;99.90
8832;DHT22;4452;50.756;4.472;2022-12-10T06:52:51;-0.60;99.90
8832;DHT22;4452;50.756;4.472;2022-12-10T06:55:18;-0.70;99.90
8832;DHT22;4452;50.756;4.472;2022-12-10T06:57:44;-0.70;99.90
8832;DHT22;4452;50.756;4.472;2022-12-10T07:00:10;-0.70;99.90
8832;DHT22;4452;50.756;4.472;2022-12-10T07:02:36;-0.70;99.90
8832;DHT22;4452;50.756;4.472;2022-12-10T07:05:03;-0.80;99.90
8832;DHT22;4452;50.756;4.472;2022-12-10T07:07:30;-0.80;99.90
8832;DHT22;4452;50.756;4.472;2022-12-10T07:09:55;-0.90;99.90
8832;DHT22;4452;50.756;4.472;2022-12-10T07:12:23;-1.00;99.90
8832;DHT22;4452;50.756;4.472;2022-12-10T07:14:49;-1.00;99.90
8832;DHT22;4452;50.756;4.472;2022-12-10T07:17:15;-1.00;99.90
8832;DHT22;4452;50.756;4.472;2022-12-10T07:19:43;-1.00;99.90
8832;DHT22;4452;50.756;4.472;2022-12-10T07:22:09;-0.90;99.90
8832;DHT22;4452;50.756;4.472;2022-12-10T07:24:35;-1.10;99.90
8832;DHT22;4452;50.756;4.472;2022-12-10T07:27:03;-0.90;99.90
8832;DHT22;4452;50.756;4.472;2022-12-10T07:29:29;-1.00;99.90
8832;DHT22;4452;50.756;4.472;2022-12-10T07:31:55;-1.10;99.90
8832;DHT22;4452;50.756;4.472;2022-12-10T07:34:20;-1.10;99.90
8832;DHT22;4452;50.756;4.472;2022-12-10T07:36:49;-1.10;99.90
8832;DHT22;4452;50.756;4.472;2022-12-10T07:39:15;-1.20;99.90
8832;DHT22;4452;50.756;4.472;2022-12-10T07:41:52;-1.10;99.90
8832;DHT22;4452;50.756;4.472;2022-12-10T07:44:19;-1.20;99.90
8832;DHT22;4452;50.756;4.472;2022-12-10T07:46:47;-1.10;99.90
8832;DHT22;4452;50.756;4.472;2022-12-10T07:49:13;-1.20;99.90
8832;DHT22;4452;50.756;4.472;2022-12-10T07:51:47;-1.10;99.90
8832;DHT22;4452;50.756;4.472;2022-12-10T07:54:14;-1.10;99.90
8832;DHT22;4452;50.756;4.472;2022-12-10T07:56:40;-1.00;99.90
8832;DHT22;4452;50.756;4.472;2022-12-10T07:59:06;-1.00;99.90
8832;DHT22;4452;50.756;4.472;2022-12-10T08:01:33;-0.90;99.90
8832;DHT22;4452;50.756;4.472;2022-12-10T08:03:58;-0.80;99.90
8832;DHT22;4452;50.756;4.472;2022-12-10T08:06:27;-0.90;99.90
8832;DHT22;4452;50.756;4.472;2022-12-10T08:08:53;-1.00;99.90
8832;DHT22;4452;50.756;4.472;2022-12-10T08:11:20;-1.00;99.90
8832;DHT22;4452;50.756;4.472;2022-12-10T08:13:46;-0.90;99.90
8832;DHT22;4452;50.756;4.472;2022-12-10T08:16:21;-1.00;99.90
8832;DHT22;4452;50.756;4.472;2022-12-10T08:18:55;-1.00;99.90
8832;DHT22;4452;50.756;4.472;2022-12-10T08:21:23;-1.00;99.90
8832;DHT22;4452;50.756;4.472;2022-12-10T08:23:50;-0.90;99.90
8832;DHT22;4452;50.756;4.472;2022-12-10T08:26:18;-0.90;99.90
8832;DHT22;4452;50.756;4.472;2022-12-10T08:28:46;-0.90;99.90
8832;DHT22;4452;50.756;4.472;2022-12-10T08:31:13;-1.00;99.90
8832;DHT22;4452;50.756;4.472;2022-12-10T08:33:41;-1.10;99.90
8832;DHT22;4452;50.756;4.472;2022-12-10T08:36:14;-1.00;99.90
8832;DHT22;4452;50.756;4.472;2022-12-10T08:38:45;-1.00;99.90
8832;DHT22;4452;50.756;4.472;2022-12-10T08:41:13;-1.00;99.90
8832;DHT22;4452;50.756;4.472;2022-12-10T08:43:39;-1.10;99.90
8832;DHT22;4452;50.756;4.472;2022-12-10T08:46:06;-1.10;99.90
8832;DHT22;4452;50.756;4.472;2022-12-10T08:48:35;-1.00;99.90
8832;DHT22;4452;50.756;4.472;2022-12-10T08:51:01;-1.00;99.90
8832;DHT22;4452;50.756;4.472;2022-12-10T08:53:27;-1.00;99.90
8832;DHT22;4452;50.756;4.472;2022-12-10T08:55:53;-1.00;99.90
8832;DHT22;4452;50.756;4.472;2022-12-10T08:58:21;-0.90;99.90
8832;DHT22;4452;50.756;4.472;2022-12-10T09:00:49;-1.00;99.90
8832;DHT22;4452;50.756;4.472;2022-12-10T09:03:16;-1.10;99.90
8832;DHT22;4452;50.756;4.472;2022-12-10T09:05:42;-1.10;99.90
8832;DHT22;4452;50.756;4.472;2022-12-10T09:08:08;-1.10;99.90
8832;DHT22;4452;50.756;4.472;2022-12-10T09:10:38;-1.10;99.90
8832;DHT22;4452;50.756;4.472;2022-12-10T09:13:04;-1.00;99.90
8832;DHT22;4452;50.756;4.472;2022-12-10T09:15:30;-1.00;99.90
8832;DHT22;4452;50.756;4.472;2022-12-10T09:17:56;-1.00;99.90
8832;DHT22;4452;50.756;4.472;2022-12-10T09:20:21;-1.00;99.90
8832;DHT22;4452;50.756;4.472;2022-12-10T09:22:47;-0.90;99.90
8832;DHT22;4452;50.756;4.472;2022-12-10T09:25:13;-0.80;99.90
8832;DHT22;4452;50.756;4.472;2022-12-10T09:27:42;-0.70;99.90
8832;DHT22;4452;50.756;4.472;2022-12-10T09:30:10;-0.70;99.90
8832;DHT22;4452;50.756;4.472;2022-12-10T09:32:36;-0.60;99.90
8832;DHT22;4452;50.756;4.472;2022-12-10T09:35:02;-0.60;99.90
8832;DHT22;4452;50.756;4.472;2022-12-10T09:37:28;-0.60;99.90
8832;DHT22;4452;50.756;4.472;2022-12-10T09:39:54;-0.50;99.90
8832;DHT22;4452;50.756;4.472;2022-12-10T09:45:40;-0.40;99.90
8832;DHT22;4452;50.756;4.472;2022-12-10T09:53:42;-0.50;99.90
8832;DHT22;4452;50.756;4.472;2022-12-10T09:56:28;-0.50;99.90
8832;DHT22;4452;50.756;4.472;2022-12-10T09:58:57;-0.40;99.90
8832;DHT22;4452;50.756;4.472;2022-12-10T10:01:27;-0.40;99.90
8832;DHT22;4452;50.756;4.472;2022-12-10T10:03:54;-0.30;99.90
8832;DHT22;4452;50.756;4.472;2022-12-10T10:06:22;-0.40;99.90
8832;DHT22;4452;50.756;4.472;2022-12-10T10:08:52;-0.30;99.90
8832;DHT22;4452;50.756;4.472;2022-12-10T10:11:24;-0.20;99.90
8832;DHT22;4452;50.756;4.472;2022-12-10T10:13:55;-0.20;99.90
8832;DHT22;4452;50.756;4.472;2022-12-10T10:16:33;-0.30;99.90
8832;DHT22;4452;50.756;4.472;2022-12-10T10:19:03;-0.10;99.90
8832;DHT22;4452;50.756;4.472;2022-12-10T10:21:39;0.10;99.90
8832;DHT22;4452;50.756;4.472;2022-12-10T10:24:07;0.10;99.90
8832;DHT22;4452;50.756;4.472;2022-12-10T10:26:35;-0.10;99.90
8832;DHT22;4452;50.756;4.472;2022-12-10T10:29:04;-0.10;99.90
8832;DHT22;4452;50.756;4.472;2022-12-10T10:31:33;0.00;99.90
8832;DHT22;4452;50.756;4.472;2022-12-10T10:34:06;-0.10;99.90
8832;DHT22;4452;50.756;4.472;2022-12-10T10:36:34;0.00;99.90
8832;DHT22;4452;50.756;4.472;2022-12-10T10:39:27;0.10;99.90
8832;DHT22;4452;50.756;4.472;2022-12-10T10:41:54;0.20;99.90
8832;DHT22;4452;50.756;4.472;2022-12-10T10:44:35;0.20;99.90
8832;DHT22;4452;50.756;4.472;2022-12-10T10:47:02;0.20;99.90
8832;DHT22;4452;50.756;4.472;2022-12-10T10:49:30;0.40;99.90
8832;DHT22;4452;50.756;4.472;2022-12-10T10:52:13;0.30;99.90
8832;DHT22;4452;50.756;4.472;2022-12-10T10:54:45;0.30;99.90
8832;DHT22;4452;50.756;4.472;2022-12-10T11:00:01;0.20;99.90
8832;DHT22;4452;50.756;4.472;2022-12-10T11:02:37;0.10;99.90
8832;DHT22;4452;50.756;4.472;2022-12-10T11:05:24;0.00;99.90
8832;DHT22;4452;50.756;4.472;2022-12-10T11:08:13;0.30;99.90
8832;DHT22;4452;50.756;4.472;2022-12-10T11:10:52;0.20;99.90
8832;DHT22;4452;50.756;4.472;2022-12-10T11:13:29;0.10;99.90
8832;DHT22;4452;50.756;4.472;2022-12-10T11:16:01;0.10;99.90
8832;DHT22;4452;50.756;4.472;2022-12-10T11:18:32;0.00;99.90
8832;DHT22;4452;50.756;4.472;2022-12-10T11:21:10;0.20;99.90
8832;DHT22;4452;50.756;4.472;2022-12-10T11:23:46;0.10;99.90
8832;DHT22;4452;50.756;4.472;2022-12-10T11:31:55;0.20;99.90
8832;DHT22;4452;50.756;4.472;2022-12-10T11:37:21;0.10;99.90
8832;DHT22;4452;50.756;4.472;2022-12-10T11:40:11;0.20;99.90
8832;DHT22;4452;50.756;4.472;2022-12-10T11:46:16;0.10;99.90
8832;DHT22;4452;50.756;4.472;2022-12-10T11:51:40;0.40;99.90
8832;DHT22;4452;50.756;4.472;2022-12-10T11:54:33;0.20;99.90
8832;DHT22;4452;50.756;4.472;2022-12-10T11:57:06;0.30;99.90
8832;DHT22;4452;50.756;4.472;2022-12-10T11:59:54;0.30;99.90
8832;DHT22;4452;50.756;4.472;2022-12-10T12:05:44;0.30;99.90
8832;DHT22;4452;50.756;4.472;2022-12-10T12:11:29;0.40;99.90
8832;DHT22;4452;50.756;4.472;2022-12-10T12:14:08;0.40;99.90
8832;DHT22;4452;50.756;4.472;2022-12-10T12:16:44;0.50;99.90
8832;DHT22;4452;50.756;4.472;2022-12-10T12:19:25;0.60;99.90
8832;DHT22;4452;50.756;4.472;2022-12-10T12:21:55;0.60;99.90
8832;DHT22;4452;50.756;4.472;2022-12-10T12:24:30;0.80;99.90
8832;DHT22;4452;50.756;4.472;2022-12-10T12:27:02;0.70;99.90
8832;DHT22;4452;50.756;4.472;2022-12-10T12:29:36;0.60;99.90
8832;DHT22;4452;50.756;4.472;2022-12-10T12:35:36;0.60;99.90
8832;DHT22;4452;50.756;4.472;2022-12-10T12:41:03;0.60;99.90
8832;DHT22;4452;50.756;4.472;2022-12-10T12:43:35;0.80;99.90
8832;DHT22;4452;50.756;4.472;2022-12-10T12:46:16;0.90;99.90
8832;DHT22;4452;50.756;4.472;2022-12-10T12:48:55;0.80;99.90
8832;DHT22;4452;50.756;4.472;2022-12-10T12:51:41;0.80;99.90
8832;DHT22;4452;50.756;4.472;2022-12-10T12:54:11;0.60;99.90
8832;DHT22;4452;50.756;4.472;2022-12-10T13:02:26;0.80;99.90
8832;DHT22;4452;50.756;4.472;2022-12-10T13:04:48;0.90;99.90
8832;DHT22;4452;50.756;4.472;2022-12-10T13:12:48;1.00;99.90
8832;DHT22;4452;50.756;4.472;2022-12-10T13:15:22;1.00;99.90
8832;DHT22;4452;50.756;4.472;2022-12-10T13:23:32;1.00;99.90
8832;DHT22;4452;50.756;4.472;2022-12-10T13:26:00;1.10;99.90
8832;DHT22;4452;50.756;4.472;2022-12-10T13:28:30;1.10;99.90
8832;DHT22;4452;50.756;4.472;2022-12-10T13:33:46;1.10;99.90
8832;DHT22;4452;50.756;4.472;2022-12-10T13:36:26;1.20;99.90
8832;DHT22;4452;50.756;4.472;2022-12-10T13:39:22;1.10;99.90
8832;DHT22;4452;50.756;4.472;2022-12-10T13:47:43;1.20;99.90
8832;DHT22;4452;50.756;4.472;2022-12-10T14:00:36;1.20;99.90
8832;DHT22;4452;50.756;4.472;2022-12-10T14:03:35;1.30;99.90
8832;DHT22;4452;50.756;4.472;2022-12-10T14:06:19;1.40;99.90
8832;DHT22;4452;50.756;4.472;2022-12-10T14:11:43;1.10;99.90
8832;DHT22;4452;50.756;4.472;2022-12-10T14:14:11;1.20;99.90
8832;DHT22;4452;50.756;4.472;2022-12-10T14:16:40;1.20;99.90
8832;DHT22;4452;50.756;4.472;2022-12-10T14:19:11;1.20;99.90
8832;DHT22;4452;50.756;4.472;2022-12-10T14:21:40;1.20;99.90
8832;DHT22;4452;50.756;4.472;2022-12-10T14:24:35;1.30;99.90
8832;DHT22;4452;50.756;4.472;2022-12-10T14:27:17;1.10;99.90
8832;DHT22;4452;50.756;4.472;2022-12-10T14:29:52;1.10;99.90
8832;DHT22;4452;50.756;4.472;2022-12-10T14:32:25;1.10;99.90
8832;DHT22;4452;50.756;4.472;2022-12-10T14:34:56;1.20;99.90
8832;DHT22;4452;50.756;4.472;2022-12-10T14:37:29;1.10;99.90
8832;DHT22;4452;50.756;4.472;2022-12-10T14:39:56;1.20;99.90
8832;DHT22;4452;50.756;4.472;2022-12-10T14:42:22;1.20;99.90
8832;DHT22;4452;50.756;4.472;2022-12-10T14:44:57;1.30;99.90
8832;DHT22;4452;50.756;4.472;2022-12-10T14:47:23;1.20;99.90
8832;DHT22;4452;50.756;4.472;2022-12-10T14:49:52;1.20;99.90
8832;DHT22;4452;50.756;4.472;2022-12-10T14:52:21;1.10;99.90
8832;DHT22;4452;50.756;4.472;2022-12-10T14:54:48;1.20;99.90
8832;DHT22;4452;50.756;4.472;2022-12-10T14:57:38;1.10;99.90
8832;DHT22;4452;50.756;4.472;2022-12-10T15:02:38;1.10;99.90
8832;DHT22;4452;50.756;4.472;2022-12-10T15:05:15;1.10;99.90
8832;DHT22;4452;50.756;4.472;2022-12-10T15:07:47;1.10;99.90
8832;DHT22;4452;50.756;4.472;2022-12-10T15:10:18;1.10;99.90
8832;DHT22;4452;50.756;4.472;2022-12-10T15:12:48;1.10;99.90
8832;DHT22;4452;50.756;4.472;2022-12-10T15:15:35;1.10;99.90
8832;DHT22;4452;50.756;4.472;2022-12-10T15:33:57;1.20;99.90
8832;DHT22;4452;50.756;4.472;2022-12-10T15:36:42;1.20;99.90
8832;DHT22;4452;50.756;4.472;2022-12-10T15:44:59;1.20;99.90
8832;DHT22;4452;50.756;4.472;2022-12-10T15:47:23;1.20;99.90
8832;DHT22;4452;50.756;4.472;2022-12-10T15:49:52;1.10;99.90
8832;DHT22;4452;50.756;4.472;2022-12-10T15:52:29;1.10;99.90
8832;DHT22;4452;50.756;4.472;2022-12-10T15:54:57;1.10;99.90
8832;DHT22;4452;50.756;4.472;2022-12-10T15:57:29;1.20;99.90
8832;DHT22;4452;50.756;4.472;2022-12-10T15:59:57;1.10;99.90
8832;DHT22;4452;50.756;4.472;2022-12-10T16:02:50;1.10;99.90
8832;DHT22;4452;50.756;4.472;2022-12-10T16:05:21;1.10;99.90
8832;DHT22;4452;50.756;4.472;2022-12-10T16:07:49;1.10;99.90
8832;DHT22;4452;50.756;4.472;2022-12-10T16:10:17;1.10;99.90
8832;DHT22;4452;50.756;4.472;2022-12-10T16:12:45;1.10;99.90
8832;DHT22;4452;50.756;4.472;2022-12-10T16:15:22;1.10;99.90
8832;DHT22;4452;50.756;4.472;2022-12-10T16:17:48;1.10;99.90
8832;DHT22;4452;50.756;4.472;2022-12-10T16:20:25;1.20;99.90
8832;DHT22;4452;50.756;4.472;2022-12-10T16:22:55;1.10;99.90
8832;DHT22;4452;50.756;4.472;2022-12-10T16:25:23;1.20;99.90
8832;DHT22;4452;50.756;4.472;2022-12-10T16:27:49;1.10;99.90
8832;DHT22;4452;50.756;4.472;2022-12-10T16:30:21;1.10;99.90
8832;DHT22;4452;50.756;4.472;2022-12-10T16:32:47;1.20;99.90
8832;DHT22;4452;50.756;4.472;2022-12-10T16:35:14;1.10;99.90
8832;DHT22;4452;50.756;4.472;2022-12-10T16:37:44;1.00;99.90
8832;DHT22;4452;50.756;4.472;2022-12-10T16:40:14;1.10;99.90
8832;DHT22;4452;50.756;4.472;2022-12-10T16:42:41;1.10;99.90
8832;DHT22;4452;50.756;4.472;2022-12-10T16:45:19;1.00;99.90
8832;DHT22;4452;50.756;4.472;2022-12-10T16:47:46;1.00;99.90
8832;DHT22;4452;50.756;4.472;2022-12-10T16:50:13;1.00;99.90
8832;DHT22;4452;50.756;4.472;2022-12-10T16:52:39;1.10;99.90
8832;DHT22;4452;50.756;4.472;2022-12-10T16:55:06;1.10;99.90
8832;DHT22;4452;50.756;4.472;2022-12-10T16:57:35;1.10;99.90
8832;DHT22;4452;50.756;4.472;2022-12-10T17:00:00;1.10;99.90
8832;DHT22;4452;50.756;4.472;2022-12-10T17:02:26;1.10;99.90
8832;DHT22;4452;50.756;4.472;2022-12-10T17:04:51;1.10;99.90
8832;DHT22;4452;50.756;4.472;2022-12-10T17:07:17;1.10;99.90
8832;DHT22;4452;50.756;4.472;2022-12-10T17:09:43;1.10;99.90
8832;DHT22;4452;50.756;4.472;2022-12-10T17:12:09;1.20;99.90
8832;DHT22;4452;50.756;4.472;2022-12-10T17:14:38;1.10;99.90
8832;DHT22;4452;50.756;4.472;2022-12-10T17:17:05;1.20;99.90
8832;DHT22;4452;50.756;4.472;2022-12-10T17:19:33;1.30;99.90
8832;DHT22;4452;50.756;4.472;2022-12-10T17:22:00;1.20;99.90
8832;DHT22;4452;50.756;4.472;2022-12-10T17:24:26;1.20;99.90
8832;DHT22;4452;50.756;4.472;2022-12-10T17:26:53;1.20;99.90
8832;DHT22;4452;50.756;4.472;2022-12-10T17:29:25;1.20;99.90
8832;DHT22;4452;50.756;4.472;2022-12-10T17:31:52;1.30;99.90
8832;DHT22;4452;50.756;4.472;2022-12-10T17:34:17;1.30;99.90
8832;DHT22;4452;50.756;4.472;2022-12-10T17:36:43;1.30;99.90
8832;DHT22;4452;50.756;4.472;2022-12-10T17:39:19;1.30;99.90
8832;DHT22;4452;50.756;4.472;2022-12-10T17:41:45;1.40;99.90
8832;DHT22;4452;50.756;4.472;2022-12-10T17:44:11;1.40;99.90
8832;DHT22;4452;50.756;4.472;2022-12-10T17:46:37;1.40;99.90
8832;DHT22;4452;50.756;4.472;2022-12-10T17:49:04;1.40;99.90
8832;DHT22;4452;50.756;4.472;2022-12-10T17:51:30;1.40;99.90
8832;DHT22;4452;50.756;4.472;2022-12-10T17:53:57;1.40;99.90
8832;DHT22;4452;50.756;4.472;2022-12-10T17:56:25;1.40;99.90
8832;DHT22;4452;50.756;4.472;2022-12-10T17:58:54;1.40;99.90
8832;DHT22;4452;50.756;4.472;2022-12-10T18:01:20;1.50;99.90
8832;DHT22;4452;50.756;4.472;2022-12-10T18:03:46;1.50;99.90
8832;DHT22;4452;50.756;4.472;2022-12-10T18:06:23;1.50;99.90
8832;DHT22;4452;50.756;4.472;2022-12-10T18:08:58;1.50;99.90
8832;DHT22;4452;50.756;4.472;2022-12-10T18:11:31;1.50;99.90
8832;DHT22;4452;50.756;4.472;2022-12-10T18:13:57;1.60;99.90
8832;DHT22;4452;50.756;4.472;2022-12-10T18:16:26;1.60;99.90
8832;DHT22;4452;50.756;4.472;2022-12-10T18:18:56;1.50;99.90
8832;DHT22;4452;50.756;4.472;2022-12-10T18:21:22;1.60;99.90
8832;DHT22;4452;50.756;4.472;2022-12-10T18:23:49;1.60;99.90
8832;DHT22;4452;50.756;4.472;2022-12-10T18:26:17;1.60;99.90
8832;DHT22;4452;50.756;4.472;2022-12-10T18:28:48;1.60;99.90
8832;DHT22;4452;50.756;4.472;2022-12-10T18:31:19;1.60;99.90